createdAt,value
2019-03-16T00:01:06.634Z,96074.98
2019-03-16T00:03:38.504Z,96077.97
2019-03-16T00:06:29.464Z,96082.03
2019-03-16T00:09:01.346Z,96077.95
2019-03-16T00:11:33.552Z,96086.48
2019-03-16T00:14:05.478Z,96092.70
2019-03-16T00:16:37.234Z,96082.23
2019-03-16T00:19:09.342Z,96093.70
2019-03-16T00:21:41.101Z,96080.57
2019-03-16T00:24:12.970Z,96079.25
2019-03-16T00:26:44.866Z,96101.24
2019-03-16T00:29:17.097Z,96090.75
2019-03-16T00:31:48.921Z,96085.17
2019-03-16T00:34:20.834Z,96109.75
2019-03-16T00:36:52.678Z,96075.00
2019-03-16T00:39:24.511Z,96088.11
2019-03-16T00:41:56.706Z,96077.78
2019-03-16T00:44:28.530Z,96071.06
2019-03-16T00:47:00.431Z,96084.17
2019-03-16T00:49:32.331Z,96089.42
2019-03-16T00:52:04.192Z,96094.02
2019-03-16T00:54:36.020Z,96097.14
2019-03-16T00:57:07.846Z,96093.04
2019-03-16T00:59:39.664Z,96094.69
2019-03-16T01:02:26.155Z,96094.03
2019-03-16T01:04:46.412Z,96107.13
2019-03-16T01:07:18.308Z,96100.92
2019-03-16T01:09:50.093Z,96109.42
2019-03-16T01:12:21.903Z,96089.74
2019-03-16T01:14:53.727Z,96088.78
2019-03-16T01:17:25.502Z,96095.16
2019-03-16T01:19:57.410Z,96103.19
2019-03-16T01:22:29.239Z,96116.30
2019-03-16T01:25:01.250Z,96098.45
2019-03-16T01:27:33.163Z,96101.70
2019-03-16T01:30:07.492Z,96104.19
2019-03-16T01:32:40.826Z,96103.03
2019-03-16T01:35:13.102Z,96114.84
2019-03-16T01:37:45.025Z,96112.53
2019-03-16T01:40:17.179Z,96116.30
2019-03-16T01:42:49.096Z,96103.84
2019-03-16T01:45:20.995Z,96106.30
2019-03-16T01:47:52.813Z,96111.70
2019-03-16T01:50:24.999Z,96110.22
2019-03-16T01:52:56.758Z,96115.31
2019-03-16T01:55:28.590Z,96123.81
2019-03-16T01:58:00.331Z,96119.06
2019-03-16T02:00:33.221Z,96112.51
2019-03-16T02:03:05.428Z,96103.80
2019-03-16T02:05:37.256Z,96099.73
2019-03-16T02:08:09.095Z,96098.91
2019-03-16T02:10:40.862Z,96108.06
2019-03-16T02:13:12.744Z,96102.84
2019-03-16T02:15:44.597Z,96116.93
2019-03-16T02:18:17.513Z,96125.12
2019-03-16T02:20:49.337Z,96121.02
2019-03-16T02:23:21.097Z,96111.20
2019-03-16T02:25:53.630Z,96128.73
2019-03-16T02:28:25.382Z,96123.33
2019-03-16T02:30:57.228Z,96129.03
2019-03-16T02:33:29.063Z,96121.17
2019-03-16T02:36:00.883Z,96130.05
2019-03-16T02:38:32.646Z,96125.93
2019-03-16T02:41:04.463Z,96125.44
2019-03-16T02:43:36.207Z,96120.02
2019-03-16T02:46:08.110Z,96128.70
2019-03-16T02:48:39.872Z,96130.20
2019-03-16T02:51:11.679Z,96128.70
2019-03-16T02:53:43.433Z,96133.12
2019-03-16T02:56:15.309Z,96126.23
2019-03-16T02:58:47.410Z,96131.84
2019-03-16T03:01:19.166Z,96134.62
2019-03-16T03:03:50.919Z,96142.81
2019-03-16T03:06:22.750Z,96145.28
2019-03-16T03:08:54.499Z,96150.34
2019-03-16T03:11:26.321Z,96138.24
2019-03-16T03:13:58.097Z,96151.84
2019-03-16T03:16:29.852Z,96150.31
2019-03-16T03:19:02.067Z,96145.71
2019-03-16T03:21:33.788Z,96153.27
2019-03-16T03:24:05.610Z,96155.08
2019-03-16T03:26:37.426Z,96159.19
2019-03-16T03:29:09.336Z,96180.34
2019-03-16T03:31:41.850Z,96161.50
2019-03-16T03:34:13.547Z,96156.72
2019-03-16T03:36:47.005Z,96152.30
2019-03-16T03:39:18.987Z,96148.36
2019-03-16T03:41:50.749Z,96154.09
2019-03-16T03:44:22.554Z,96163.61
2019-03-16T03:46:54.226Z,96169.00
2019-03-16T03:49:25.904Z,96155.71
2019-03-16T03:51:57.951Z,96159.00
2019-03-16T03:54:29.636Z,96157.02
2019-03-16T03:57:01.349Z,96160.80
2019-03-16T03:59:33.656Z,96146.38
2019-03-16T04:02:05.525Z,96168.03
2019-03-16T04:04:37.658Z,96169.34
2019-03-16T04:07:09.434Z,96165.70
2019-03-16T04:09:42.165Z,96181.95
2019-03-16T04:12:13.935Z,96174.43
2019-03-16T04:14:45.625Z,96170.31
2019-03-16T04:17:17.697Z,96174.88
2019-03-16T04:19:49.891Z,96171.62
2019-03-16T04:22:21.611Z,96183.91
2019-03-16T04:24:53.299Z,96171.44
2019-03-16T04:27:25.021Z,96175.22
2019-03-16T04:29:56.710Z,96168.66
2019-03-16T04:32:28.752Z,96170.95
2019-03-16T04:35:00.538Z,96171.62
2019-03-16T04:37:32.252Z,96179.97
2019-03-16T04:40:04.042Z,96167.17
2019-03-16T04:42:37.377Z,96173.94
2019-03-16T04:45:09.223Z,96172.25
2019-03-16T04:47:41.605Z,96173.88
2019-03-16T04:50:13.474Z,96167.50
2019-03-16T04:52:45.174Z,96169.34
2019-03-16T04:55:16.875Z,96160.13
2019-03-16T04:57:48.609Z,96155.71
2019-03-16T05:00:20.337Z,96162.94
2019-03-16T05:02:52.029Z,96179.48
2019-03-16T05:05:23.749Z,96167.02
2019-03-16T05:07:55.516Z,96167.32
2019-03-16T05:10:27.562Z,96165.38
2019-03-16T05:13:00.083Z,96167.66
2019-03-16T05:15:32.037Z,96174.58
2019-03-16T05:18:03.745Z,96201.09
2019-03-16T05:20:35.421Z,96169.64
2019-03-16T05:23:07.468Z,96174.73
2019-03-16T05:25:39.147Z,96171.44
2019-03-16T05:28:11.619Z,96169.00
2019-03-16T05:30:43.310Z,96168.33
2019-03-16T05:33:15.004Z,96168.17
2019-03-16T05:35:46.775Z,96170.31
2019-03-16T05:38:18.472Z,96175.06
2019-03-16T05:40:50.248Z,96196.19
2019-03-16T05:43:21.960Z,96189.00
2019-03-16T05:45:53.749Z,96186.67
2019-03-16T05:48:25.471Z,96197.46
2019-03-16T05:50:57.615Z,96197.64
2019-03-16T05:53:29.465Z,96202.06
2019-03-16T05:56:01.151Z,96196.52
2019-03-16T05:58:32.891Z,96196.53
2019-03-16T06:01:05.634Z,96199.67
2019-03-16T06:03:39.217Z,96213.94
2019-03-16T06:06:11.246Z,96200.16
2019-03-16T06:08:43.001Z,96204.46
2019-03-16T06:11:14.676Z,96210.16
2019-03-16T06:13:47.447Z,96211.32
2019-03-16T06:16:19.296Z,96219.19
2019-03-16T06:18:51.042Z,96222.81
2019-03-16T06:21:22.809Z,96234.09
2019-03-16T06:23:54.509Z,96231.99
2019-03-16T06:26:26.539Z,96233.00
2019-03-16T06:28:58.314Z,96238.06
2019-03-16T06:31:30.672Z,96236.27
2019-03-16T06:34:02.674Z,96245.11
2019-03-16T06:36:34.432Z,96242.48
2019-03-16T06:39:08.621Z,96259.20
2019-03-16T06:41:43.333Z,96262.87
2019-03-16T06:44:14.429Z,96251.70
2019-03-16T06:46:46.313Z,96237.42
2019-03-16T06:49:18.069Z,96248.10
2019-03-16T06:51:50.887Z,96250.39
2019-03-16T06:54:22.747Z,96244.17
2019-03-16T06:56:54.659Z,96258.75
2019-03-16T06:59:26.627Z,96264.63
2019-03-16T07:01:58.424Z,96255.11
2019-03-16T07:04:31.240Z,96255.97
2019-03-16T07:07:03.487Z,96265.78
2019-03-16T07:09:36.519Z,96271.52
2019-03-16T07:12:09.268Z,96280.84
2019-03-16T07:14:41.012Z,96286.39
2019-03-16T07:17:12.938Z,96284.74
2019-03-16T07:19:44.623Z,96294.01
2019-03-16T07:22:16.481Z,96291.39
2019-03-16T07:24:51.483Z,96293.22
2019-03-16T07:27:26.485Z,96303.03
2019-03-16T07:29:55.374Z,96312.36
2019-03-16T07:32:27.123Z,96303.66
2019-03-16T07:34:58.812Z,96301.03
2019-03-16T07:37:30.829Z,96306.77
2019-03-16T07:40:02.516Z,96301.38
2019-03-16T07:42:34.266Z,96303.13
2019-03-16T07:45:08.877Z,96305.59
2019-03-16T07:47:41.708Z,96297.73
2019-03-16T07:50:14.069Z,96310.06
2019-03-16T07:52:46.829Z,96308.85
2019-03-16T07:55:18.592Z,96316.76
2019-03-16T07:57:50.267Z,96313.52
2019-03-16T08:00:21.952Z,96315.39
2019-03-16T08:02:53.952Z,96316.76
2019-03-16T08:05:26.687Z,96327.86
2019-03-16T08:07:58.396Z,96322.36
2019-03-16T08:10:30.057Z,96329.09
2019-03-16T08:13:02.151Z,96331.19
2019-03-16T08:15:34.980Z,96337.78
2019-03-16T08:18:07.996Z,96328.09
2019-03-16T08:20:40.530Z,96344.34
2019-03-16T08:23:12.309Z,96343.82
2019-03-16T08:25:44.078Z,96364.97
2019-03-16T08:28:15.769Z,96347.16
2019-03-16T08:30:47.767Z,96355.93
2019-03-16T08:33:19.719Z,96367.55
2019-03-16T08:35:51.674Z,96349.87
2019-03-16T08:38:23.658Z,96362.09
2019-03-16T08:40:55.342Z,96348.22
2019-03-16T08:43:27.272Z,96366.56
2019-03-16T08:45:58.960Z,96345.53
2019-03-16T08:48:30.960Z,96348.51
2019-03-16T08:51:02.658Z,96365.67
2019-03-16T08:53:34.663Z,96361.17
2019-03-16T08:56:06.368Z,96362.28
2019-03-16T08:58:38.346Z,96356.98
2019-03-16T09:01:11.337Z,96362.97
2019-03-16T09:03:44.090Z,96365.59
2019-03-16T09:06:17.021Z,96370.86
2019-03-16T09:08:48.761Z,96370.72
2019-03-16T09:11:20.479Z,96367.27
2019-03-16T09:13:52.435Z,96361.45
2019-03-16T09:16:24.134Z,96357.95
2019-03-16T09:18:55.809Z,96367.96
2019-03-16T09:21:28.034Z,96367.96
2019-03-16T09:23:59.716Z,96365.66
2019-03-16T09:26:31.655Z,96377.59
2019-03-16T09:29:14.439Z,96380.34
2019-03-16T09:31:37.038Z,96376.70
2019-03-16T09:34:09.407Z,96367.23
2019-03-16T09:36:41.132Z,96367.59
2019-03-16T09:39:12.781Z,96367.94
2019-03-16T09:41:45.050Z,96381.41
2019-03-16T09:44:16.738Z,96360.64
2019-03-16T09:46:48.421Z,96363.16
2019-03-16T09:49:20.091Z,96350.40
2019-03-16T09:51:51.778Z,96361.56
2019-03-16T09:54:23.471Z,96351.75
2019-03-16T09:57:01.162Z,96361.23
2019-03-16T09:59:28.875Z,96346.80
2019-03-16T10:02:00.583Z,96340.39
2019-03-16T10:04:32.331Z,96342.19
2019-03-16T10:07:04.024Z,96348.55
2019-03-16T10:09:35.691Z,96341.80
2019-03-16T10:12:07.536Z,96355.88
2019-03-16T10:14:39.226Z,96377.83
2019-03-16T10:17:11.438Z,96351.02
2019-03-16T10:19:43.145Z,96345.77
2019-03-16T10:22:14.855Z,96348.74
2019-03-16T10:24:46.773Z,96333.24
2019-03-16T10:27:18.750Z,96340.78
2019-03-16T10:29:50.811Z,96329.84
2019-03-16T10:32:22.510Z,96332.12
2019-03-16T10:34:54.258Z,96342.95
2019-03-16T10:37:26.985Z,96345.58
2019-03-16T10:39:59.129Z,96347.38
2019-03-16T10:42:30.811Z,96366.37
2019-03-16T10:45:03.776Z,96342.28
2019-03-16T10:47:35.773Z,96344.57
2019-03-16T10:50:09.808Z,96346.03
2019-03-16T10:52:41.510Z,96346.22
2019-03-16T10:55:13.347Z,96342.92
2019-03-16T10:57:46.385Z,96363.12
2019-03-16T11:00:18.502Z,96353.45
2019-03-16T11:02:50.320Z,96351.51
2019-03-16T11:05:22.023Z,96348.91
2019-03-16T11:07:53.704Z,96332.68
2019-03-16T11:10:25.392Z,96344.04
2019-03-16T11:12:57.426Z,96342.08
2019-03-16T11:15:29.399Z,96343.27
2019-03-16T11:18:01.088Z,96332.77
2019-03-16T11:20:33.027Z,96330.30
2019-03-16T11:23:04.802Z,96337.20
2019-03-16T11:25:36.486Z,96333.08
2019-03-16T11:28:08.292Z,96328.65
2019-03-16T11:30:39.974Z,96316.86
2019-03-16T11:33:11.678Z,96320.80
2019-03-16T11:35:43.376Z,96316.84
2019-03-16T11:38:15.127Z,96318.48
2019-03-16T11:40:46.930Z,96316.20
2019-03-16T11:43:18.981Z,96313.91
2019-03-16T11:45:51.279Z,96305.53
2019-03-16T11:48:23.465Z,96308.67
2019-03-16T11:50:55.751Z,96305.72
2019-03-16T11:53:27.993Z,96299.16
2019-03-16T11:55:59.781Z,96288.66
2019-03-16T11:58:31.700Z,96289.29
2019-03-16T12:01:03.497Z,96289.31
2019-03-16T12:03:35.193Z,96279.63
2019-03-16T12:06:07.198Z,96276.00
2019-03-16T12:08:39.819Z,96267.94
2019-03-16T12:11:11.913Z,96267.94
2019-03-16T12:13:44.159Z,96261.03
2019-03-16T12:16:16.079Z,96247.22
2019-03-16T12:18:47.931Z,96257.72
2019-03-16T12:21:20.119Z,96252.50
2019-03-16T12:23:52.292Z,96252.31
2019-03-16T12:26:24.082Z,96246.08
2019-03-16T12:28:56.146Z,96238.53
2019-03-16T12:31:28.563Z,96243.48
2019-03-16T12:34:00.517Z,96246.60
2019-03-16T12:36:32.305Z,96248.23
2019-03-16T12:39:05.783Z,96247.20
2019-03-16T12:41:37.980Z,96252.12
2019-03-16T12:44:09.768Z,96232.11
2019-03-16T12:46:41.655Z,96234.19
2019-03-16T12:49:13.730Z,96236.64
2019-03-16T12:51:45.795Z,96225.30
2019-03-16T12:54:17.705Z,96221.52
2019-03-16T12:56:49.410Z,96208.18
2019-03-16T12:59:22.339Z,96222.63
2019-03-16T13:01:54.386Z,96208.30
2019-03-16T13:04:26.083Z,96200.05
2019-03-16T13:06:58.162Z,96201.20
2019-03-16T13:09:30.040Z,96205.83
2019-03-16T13:12:02.244Z,96207.92
2019-03-16T13:14:34.271Z,96204.38
2019-03-16T13:17:06.189Z,96206.48
2019-03-16T13:19:38.014Z,96199.83
2019-03-16T13:22:09.723Z,96196.87
2019-03-16T13:24:41.594Z,96188.34
2019-03-16T13:27:13.484Z,96197.93
2019-03-16T13:29:45.552Z,96181.16
2019-03-16T13:32:17.325Z,96184.28
2019-03-16T13:34:49.153Z,96190.04
2019-03-16T13:37:20.836Z,96171.62
2019-03-16T13:39:52.544Z,96176.22
2019-03-16T13:42:24.457Z,96188.69
2019-03-16T13:44:56.228Z,96190.16
2019-03-16T13:47:28.405Z,96171.51
2019-03-16T13:50:00.407Z,96175.65
2019-03-16T13:52:32.499Z,96186.80
2019-03-16T13:55:04.443Z,96176.20
2019-03-16T13:57:36.428Z,96173.17
2019-03-16T14:00:12.130Z,96174.72
2019-03-16T14:02:44.171Z,96165.89
2019-03-16T14:05:16.312Z,96155.50
2019-03-16T14:07:49.203Z,96171.10
2019-03-16T14:10:21.095Z,96150.50
2019-03-16T14:12:53.024Z,96159.68
2019-03-16T14:15:24.721Z,96146.88
2019-03-16T14:17:58.259Z,96147.70
2019-03-16T14:20:30.365Z,96138.13
2019-03-16T14:23:02.604Z,96136.95
2019-03-16T14:25:34.515Z,96137.73
2019-03-16T14:28:06.436Z,96118.97
2019-03-16T14:30:41.754Z,96120.72
2019-03-16T14:33:11.860Z,96118.55
2019-03-16T14:35:43.571Z,96128.09
2019-03-16T14:38:15.523Z,96119.83
2019-03-16T14:40:47.828Z,96118.44
2019-03-16T14:43:19.529Z,96124.81
2019-03-16T14:45:51.270Z,96117.44
2019-03-16T14:48:23.918Z,96107.48
2019-03-16T14:50:56.031Z,96119.08
2019-03-16T14:53:29.196Z,96111.64
2019-03-16T14:56:01.039Z,96105.08
2019-03-16T14:58:33.777Z,96103.19
2019-03-16T15:01:05.940Z,96093.43
2019-03-16T15:03:39.399Z,96090.21
2019-03-16T15:06:11.772Z,96098.36
2019-03-16T15:08:43.515Z,96102.14
2019-03-16T15:11:15.267Z,96088.87
2019-03-16T15:13:47.543Z,96083.39
2019-03-16T15:16:19.426Z,96090.00
2019-03-16T15:18:51.358Z,96085.00
2019-03-16T15:21:23.059Z,96071.32
2019-03-16T15:23:55.097Z,96074.63
2019-03-16T15:26:27.069Z,96072.73
2019-03-16T15:28:58.795Z,96068.80
2019-03-16T15:31:30.817Z,96066.88
2019-03-16T15:34:03.129Z,96066.55
2019-03-16T15:36:34.923Z,96069.85
2019-03-16T15:39:08.889Z,96074.53
2019-03-16T15:41:40.653Z,96078.24
2019-03-16T15:44:12.436Z,96079.89
2019-03-16T15:46:44.411Z,96075.84
2019-03-16T15:49:17.206Z,96075.79
2019-03-16T15:51:49.137Z,96078.49
2019-03-16T15:54:20.928Z,96061.94
2019-03-16T15:56:53.484Z,96066.53
2019-03-16T15:59:25.288Z,96059.44
2019-03-16T16:01:57.022Z,96070.05
2019-03-16T16:04:28.768Z,96061.13
2019-03-16T16:07:00.517Z,96055.67
2019-03-16T16:09:33.627Z,96062.69
2019-03-16T16:12:05.782Z,96049.41
2019-03-16T16:14:37.711Z,96052.90
2019-03-16T16:17:09.412Z,96046.78
2019-03-16T16:19:41.132Z,96045.13
2019-03-16T16:22:13.511Z,96025.80
2019-03-16T16:24:45.258Z,96011.62
2019-03-16T16:27:17.125Z,96008.25
2019-03-16T16:29:49.151Z,96014.08
2019-03-16T16:32:21.149Z,96013.75
2019-03-16T16:34:53.030Z,96011.88
2019-03-16T16:37:24.834Z,96005.27
2019-03-16T16:39:56.671Z,96014.61
2019-03-16T16:42:29.429Z,96008.22
2019-03-16T16:45:01.140Z,96003.16
2019-03-16T16:47:33.070Z,96003.31
2019-03-16T16:50:06.433Z,96013.56
2019-03-16T16:52:38.115Z,96003.44
2019-03-16T16:55:10.064Z,96013.26
2019-03-16T16:57:41.940Z,96005.49
2019-03-16T17:00:16.110Z,96006.56
2019-03-16T17:02:47.805Z,96005.95
2019-03-16T17:05:20.678Z,96010.59
2019-03-16T17:07:53.944Z,96012.33
2019-03-16T17:10:26.350Z,96015.34
2019-03-16T17:12:58.043Z,96009.06
2019-03-16T17:15:29.788Z,96011.56
2019-03-16T17:18:01.607Z,96004.40
2019-03-16T17:20:33.614Z,96011.68
2019-03-16T17:23:05.542Z,96003.20
2019-03-16T17:25:37.240Z,96006.78
2019-03-16T17:28:09.771Z,95995.23
2019-03-16T17:30:41.882Z,95996.77
2019-03-16T17:33:14.233Z,95994.06
2019-03-16T17:35:45.939Z,95999.05
2019-03-16T17:38:17.790Z,95996.98
2019-03-16T17:40:49.515Z,95999.29
2019-03-16T17:43:22.281Z,95985.64
2019-03-16T17:45:54.378Z,95987.55
2019-03-16T17:48:29.579Z,95985.28
2019-03-16T17:50:59.993Z,95984.09
2019-03-16T17:53:31.931Z,95986.97
2019-03-16T17:56:03.661Z,95991.08
2019-03-16T17:58:35.455Z,95989.56
2019-03-16T18:01:07.241Z,95988.98
2019-03-16T18:03:38.934Z,95986.83
2019-03-16T18:06:11.535Z,95986.92
2019-03-16T18:08:43.269Z,95988.94
2019-03-16T18:11:15.484Z,95988.66
2019-03-16T18:13:47.255Z,95984.04
2019-03-16T18:16:18.974Z,95991.66
2019-03-16T18:18:50.690Z,95978.30
2019-03-16T18:21:22.527Z,95986.53
2019-03-16T18:23:54.215Z,95980.66
2019-03-16T18:26:25.905Z,95972.31
2019-03-16T18:28:57.677Z,95982.95
2019-03-16T18:31:29.347Z,95979.54
2019-03-16T18:34:01.094Z,95979.48
2019-03-16T18:36:33.226Z,95982.59
2019-03-16T18:39:06.991Z,95977.87
2019-03-16T18:41:38.705Z,95980.11
2019-03-16T18:44:11.368Z,95984.27
2019-03-16T18:46:43.047Z,95980.84
2019-03-16T18:49:14.850Z,95979.52
2019-03-16T18:51:46.791Z,95972.81
2019-03-16T18:54:18.829Z,95976.44
2019-03-16T18:56:51.591Z,95973.12
2019-03-16T18:59:23.288Z,95972.31
2019-03-16T19:01:54.993Z,95967.69
2019-03-16T19:04:27.027Z,95956.86
2019-03-16T19:06:58.834Z,95968.00
2019-03-16T19:09:30.596Z,95955.42
2019-03-16T19:12:02.299Z,95952.95
2019-03-16T19:14:34.003Z,95946.21
2019-03-16T19:17:06.052Z,95945.59
2019-03-16T19:19:37.729Z,95952.84
2019-03-16T19:22:11.584Z,95945.48
2019-03-16T19:24:42.958Z,95942.23
2019-03-16T19:27:19.061Z,95943.41
2019-03-16T19:29:50.391Z,95937.01
2019-03-16T19:32:33.009Z,95932.75
2019-03-16T19:34:55.486Z,95934.38
2019-03-16T19:37:27.752Z,95928.14
2019-03-16T19:39:59.425Z,95929.83
2019-03-16T19:42:31.426Z,95921.81
2019-03-16T19:45:03.180Z,95922.45
2019-03-16T19:47:34.963Z,95914.77
2019-03-16T19:50:09.251Z,95915.07
2019-03-16T19:52:41.452Z,95914.08
2019-03-16T19:55:13.364Z,95913.42
2019-03-16T19:57:45.754Z,95912.41
2019-03-16T20:00:17.639Z,95912.57
2019-03-16T20:02:51.276Z,95912.48
2019-03-16T20:05:22.919Z,95915.92
2019-03-16T20:07:54.587Z,95918.80
2019-03-16T20:10:26.401Z,95908.97
2019-03-16T20:12:58.214Z,95920.78
2019-03-16T20:15:29.967Z,95911.34
2019-03-16T20:18:01.820Z,95902.75
2019-03-16T20:20:33.673Z,95898.69
2019-03-16T20:23:05.361Z,95906.72
2019-03-16T20:25:37.216Z,95908.46
2019-03-16T20:28:09.065Z,95911.88
2019-03-16T20:30:40.876Z,95910.09
2019-03-16T20:33:12.560Z,95915.67
2019-03-16T20:35:44.482Z,95909.47
2019-03-16T20:38:16.433Z,95909.65
2019-03-16T20:40:50.578Z,95913.56
2019-03-16T20:43:22.484Z,95918.45
2019-03-16T20:45:54.461Z,95911.51
2019-03-16T20:48:26.745Z,95910.88
2019-03-16T20:50:58.439Z,95910.70
2019-03-16T20:53:30.264Z,95904.32
2019-03-16T20:56:01.961Z,95906.53
2019-03-16T20:58:33.649Z,95911.81
2019-03-16T21:01:05.441Z,95911.78
2019-03-16T21:03:37.111Z,95912.53
2019-03-16T21:06:08.782Z,95909.52
2019-03-16T21:08:40.471Z,95910.41
2019-03-16T21:11:12.187Z,95909.11
2019-03-16T21:13:43.911Z,95903.23
2019-03-16T21:16:15.707Z,95902.31
2019-03-16T21:18:47.475Z,95907.39
2019-03-16T21:21:19.151Z,95901.45
2019-03-16T21:23:50.888Z,95898.74
2019-03-16T21:26:22.565Z,95905.27
2019-03-16T21:28:54.260Z,95895.59
2019-03-16T21:31:25.953Z,95898.41
2019-03-16T21:33:57.668Z,95885.95
2019-03-16T21:36:41.091Z,95886.40
2019-03-16T21:39:06.081Z,95889.38
2019-03-16T21:41:37.836Z,95890.20
2019-03-16T21:44:09.723Z,95881.19
2019-03-16T21:46:43.797Z,95881.84
2019-03-16T21:49:15.085Z,95878.17
2019-03-16T21:51:46.780Z,95882.11
2019-03-16T21:54:18.740Z,95880.63
2019-03-16T21:56:50.682Z,95875.52
2019-03-16T21:59:22.369Z,95871.59
2019-03-16T22:01:54.131Z,95868.15
2019-03-16T22:04:25.852Z,95868.42
2019-03-16T22:06:59.172Z,95862.49
2019-03-16T22:09:31.271Z,95850.25
2019-03-16T22:12:02.967Z,95850.91
2019-03-16T22:14:35.000Z,95847.92
2019-03-16T22:17:06.702Z,95849.22
2019-03-16T22:19:38.423Z,95849.67
2019-03-16T22:22:11.348Z,95849.95
2019-03-16T22:24:43.150Z,95841.61
2019-03-16T22:27:14.901Z,95841.13
2019-03-16T22:29:46.995Z,95839.28
2019-03-16T22:32:18.800Z,95835.95
2019-03-16T22:34:50.489Z,95841.55
2019-03-16T22:37:22.249Z,95834.75
2019-03-16T22:39:54.064Z,95836.09
2019-03-16T22:42:25.864Z,95835.54
2019-03-16T22:44:58.571Z,95833.89
2019-03-16T22:47:30.414Z,95830.56
2019-03-16T22:50:02.099Z,95826.52
2019-03-16T22:52:33.992Z,95824.41
2019-03-16T22:55:06.355Z,95820.73
2019-03-16T22:57:38.373Z,95816.53
2019-03-16T23:00:12.846Z,95815.89
2019-03-16T23:02:46.191Z,95811.91
2019-03-16T23:05:17.969Z,95816.03
2019-03-16T23:07:49.644Z,95808.53
2019-03-16T23:10:21.671Z,95807.27
2019-03-16T23:12:55.060Z,95806.09
2019-03-16T23:15:26.920Z,95798.88
2019-03-16T23:17:58.851Z,95797.98
2019-03-16T23:20:30.729Z,95792.73
2019-03-16T23:23:02.795Z,95790.48
2019-03-16T23:25:34.502Z,95787.19
2019-03-16T23:28:06.312Z,95779.15
2019-03-16T23:30:38.308Z,95785.75
2019-03-16T23:33:11.274Z,95780.50
2019-03-16T23:35:43.101Z,95778.30
2019-03-16T23:38:14.930Z,95780.03
2019-03-16T23:40:46.603Z,95778.60
2019-03-16T23:43:18.765Z,95776.41
2019-03-16T23:45:50.537Z,95766.16
2019-03-16T23:48:22.225Z,95771.20
2019-03-16T23:50:54.011Z,95768.77
2019-03-16T23:53:25.704Z,95755.85
2019-03-16T23:55:57.670Z,95755.24
2019-03-16T23:58:29.352Z,95751.81
